sensor_id;sensor_type;location;lat;lon;timestamp;P1;durP1;ratioP1;P2;durP2;ratioP2
6203;SDS011;3135;42.602;23.468;2023-04-07T00:01:29;11.20;;;6.23;;
6203;SDS011;3135;42.602;23.468;2023-04-07T00:03:55;10.80;;;6.03;;
6203;SDS011;3135;42.602;23.468;2023-04-07T00:06:20;11.15;;;6.18;;
6203;SDS011;3135;42.602;23.468;2023-04-07T00:08:46;11.98;;;6.03;;
6203;SDS011;3135;42.602;23.468;2023-04-07T00:11:11;12.20;;;5.35;;
6203;SDS011;3135;42.602;23.468;2023-04-07T00:13:37;12.80;;;6.60;;
6203;SDS011;3135;42.602;23.468;2023-04-07T00:16:02;9.80;;;5.40;;
6203;SDS011;3135;42.602;23.468;2023-04-07T00:18:28;11.20;;;6.20;;
6203;SDS011;3135;42.602;23.468;2023-04-07T00:20:53;13.20;;;5.73;;
6203;SDS011;3135;42.602;23.468;2023-04-07T00:23:19;11.13;;;5.80;;
6203;SDS011;3135;42.602;23.468;2023-04-07T00:25:46;13.47;;;6.03;;
6203;SDS011;3135;42.602;23.468;2023-04-07T00:28:12;10.73;;;6.00;;
6203;SDS011;3135;42.602;23.468;2023-04-07T00:30:37;10.00;;;5.63;;
6203;SDS011;3135;42.602;23.468;2023-04-07T00:33:03;10.77;;;5.70;;
6203;SDS011;3135;42.602;23.468;2023-04-07T00:35:28;10.37;;;5.43;;
6203;SDS011;3135;42.602;23.468;2023-04-07T00:37:54;10.87;;;6.20;;
6203;SDS011;3135;42.602;23.468;2023-04-07T00:40:19;8.97;;;5.40;;
6203;SDS011;3135;42.602;23.468;2023-04-07T00:42:45;12.27;;;5.63;;
6203;SDS011;3135;42.602;23.468;2023-04-07T00:45:10;12.03;;;5.80;;
6203;SDS011;3135;42.602;23.468;2023-04-07T00:47:36;8.63;;;5.40;;
6203;SDS011;3135;42.602;23.468;2023-04-07T00:50:03;10.53;;;5.53;;
6203;SDS011;3135;42.602;23.468;2023-04-07T00:52:29;17.50;;;7.72;;
6203;SDS011;3135;42.602;23.468;2023-04-07T00:54:57;13.35;;;6.78;;
6203;SDS011;3135;42.602;23.468;2023-04-07T00:57:24;10.73;;;6.10;;
6203;SDS011;3135;42.602;23.468;2023-04-07T00:59:50;10.57;;;5.63;;
6203;SDS011;3135;42.602;23.468;2023-04-07T01:02:25;12.15;;;6.30;;
6203;SDS011;3135;42.602;23.468;2023-04-07T01:05:01;11.85;;;6.40;;
6203;SDS011;3135;42.602;23.468;2023-04-07T01:11:04;10.82;;;5.85;;
6203;SDS011;3135;42.602;23.468;2023-04-07T01:13:48;10.70;;;5.78;;
6203;SDS011;3135;42.602;23.468;2023-04-07T01:16:16;12.07;;;5.70;;
6203;SDS011;3135;42.602;23.468;2023-04-07T01:18:50;13.15;;;5.65;;
6203;SDS011;3135;42.602;23.468;2023-04-07T01:21:18;8.33;;;5.30;;
6203;SDS011;3135;42.602;23.468;2023-04-07T01:26:46;11.67;;;5.33;;
6203;SDS011;3135;42.602;23.468;2023-04-07T01:29:31;10.85;;;5.70;;
6203;SDS011;3135;42.602;23.468;2023-04-07T01:32:01;10.07;;;6.00;;
6203;SDS011;3135;42.602;23.468;2023-04-07T01:34:30;9.93;;;5.65;;
6203;SDS011;3135;42.602;23.468;2023-04-07T01:36:57;9.55;;;5.80;;
6203;SDS011;3135;42.602;23.468;2023-04-07T01:39:25;12.63;;;5.88;;
6203;SDS011;3135;42.602;23.468;2023-04-07T01:41:51;10.27;;;5.68;;
6203;SDS011;3135;42.602;23.468;2023-04-07T01:44:18;8.43;;;5.00;;
6203;SDS011;3135;42.602;23.468;2023-04-07T01:46:45;10.17;;;5.70;;
6203;SDS011;3135;42.602;23.468;2023-04-07T01:49:11;9.57;;;5.63;;
6203;SDS011;3135;42.602;23.468;2023-04-07T01:51:38;11.10;;;5.43;;
6203;SDS011;3135;42.602;23.468;2023-04-07T01:54:05;11.27;;;5.30;;
6203;SDS011;3135;42.602;23.468;2023-04-07T01:56:32;10.73;;;5.30;;
6203;SDS011;3135;42.602;23.468;2023-04-07T01:58:58;9.00;;;5.03;;
6203;SDS011;3135;42.602;23.468;2023-04-07T02:01:23;8.33;;;5.03;;
6203;SDS011;3135;42.602;23.468;2023-04-07T02:06:27;9.93;;;5.53;;
6203;SDS011;3135;42.602;23.468;2023-04-07T02:08:58;8.35;;;4.95;;
6203;SDS011;3135;42.602;23.468;2023-04-07T02:11:28;13.63;;;6.53;;
6203;SDS011;3135;42.602;23.468;2023-04-07T02:13:57;15.52;;;7.00;;
6203;SDS011;3135;42.602;23.468;2023-04-07T02:16:27;12.90;;;6.75;;
6203;SDS011;3135;42.602;23.468;2023-04-07T02:18:54;11.48;;;5.57;;
6203;SDS011;3135;42.602;23.468;2023-04-07T02:21:21;9.30;;;5.40;;
6203;SDS011;3135;42.602;23.468;2023-04-07T02:23:48;9.85;;;5.63;;
6203;SDS011;3135;42.602;23.468;2023-04-07T02:26:13;8.03;;;4.93;;
6203;SDS011;3135;42.602;23.468;2023-04-07T02:28:39;8.83;;;5.03;;
6203;SDS011;3135;42.602;23.468;2023-04-07T02:31:05;14.90;;;6.63;;
6203;SDS011;3135;42.602;23.468;2023-04-07T02:33:30;9.30;;;5.37;;
6203;SDS011;3135;42.602;23.468;2023-04-07T02:35:55;9.10;;;5.20;;
6203;SDS011;3135;42.602;23.468;2023-04-07T02:38:21;9.20;;;5.40;;
6203;SDS011;3135;42.602;23.468;2023-04-07T02:40:46;8.53;;;4.70;;
6203;SDS011;3135;42.602;23.468;2023-04-07T02:43:12;8.00;;;4.90;;
6203;SDS011;3135;42.602;23.468;2023-04-07T02:45:38;12.68;;;6.93;;
6203;SDS011;3135;42.602;23.468;2023-04-07T02:48:03;8.50;;;5.63;;
6203;SDS011;3135;42.602;23.468;2023-04-07T02:50:29;7.87;;;4.93;;
6203;SDS011;3135;42.602;23.468;2023-04-07T02:52:54;8.67;;;5.13;;
6203;SDS011;3135;42.602;23.468;2023-04-07T02:55:20;8.77;;;5.03;;
6203;SDS011;3135;42.602;23.468;2023-04-07T02:57:45;8.38;;;5.07;;
6203;SDS011;3135;42.602;23.468;2023-04-07T03:00:11;9.87;;;5.47;;
6203;SDS011;3135;42.602;23.468;2023-04-07T03:02:37;9.52;;;5.65;;
6203;SDS011;3135;42.602;23.468;2023-04-07T03:05:02;9.43;;;5.23;;
6203;SDS011;3135;42.602;23.468;2023-04-07T03:07:28;8.53;;;4.93;;
6203;SDS011;3135;42.602;23.468;2023-04-07T03:09:55;8.40;;;4.73;;
6203;SDS011;3135;42.602;23.468;2023-04-07T03:12:21;8.68;;;5.18;;
6203;SDS011;3135;42.602;23.468;2023-04-07T03:14:46;10.87;;;5.87;;
6203;SDS011;3135;42.602;23.468;2023-04-07T03:17:12;12.90;;;7.37;;
6203;SDS011;3135;42.602;23.468;2023-04-07T03:19:37;13.17;;;6.97;;
6203;SDS011;3135;42.602;23.468;2023-04-07T03:22:03;16.80;;;8.40;;
6203;SDS011;3135;42.602;23.468;2023-04-07T03:24:28;20.80;;;8.83;;
6203;SDS011;3135;42.602;23.468;2023-04-07T03:26:54;21.33;;;9.10;;
6203;SDS011;3135;42.602;23.468;2023-04-07T03:29:20;24.67;;;11.60;;
6203;SDS011;3135;42.602;23.468;2023-04-07T03:31:45;44.73;;;19.60;;
6203;SDS011;3135;42.602;23.468;2023-04-07T03:34:11;28.23;;;12.45;;
6203;SDS011;3135;42.602;23.468;2023-04-07T03:36:36;22.52;;;9.70;;
6203;SDS011;3135;42.602;23.468;2023-04-07T03:39:01;18.92;;;9.18;;
6203;SDS011;3135;42.602;23.468;2023-04-07T03:41:27;18.67;;;8.80;;
6203;SDS011;3135;42.602;23.468;2023-04-07T03:43:52;18.10;;;8.13;;
6203;SDS011;3135;42.602;23.468;2023-04-07T03:46:19;11.00;;;6.40;;
6203;SDS011;3135;42.602;23.468;2023-04-07T03:48:45;9.38;;;5.40;;
6203;SDS011;3135;42.602;23.468;2023-04-07T03:51:11;11.00;;;5.23;;
6203;SDS011;3135;42.602;23.468;2023-04-07T03:53:36;8.88;;;5.18;;
6203;SDS011;3135;42.602;23.468;2023-04-07T03:56:02;8.80;;;4.93;;
6203;SDS011;3135;42.602;23.468;2023-04-07T03:58:28;7.93;;;5.20;;
6203;SDS011;3135;42.602;23.468;2023-04-07T04:00:53;8.07;;;4.63;;
6203;SDS011;3135;42.602;23.468;2023-04-07T04:03:18;7.77;;;5.10;;
6203;SDS011;3135;42.602;23.468;2023-04-07T04:05:44;12.73;;;4.97;;
6203;SDS011;3135;42.602;23.468;2023-04-07T04:08:09;11.30;;;5.20;;
6203;SDS011;3135;42.602;23.468;2023-04-07T04:10:35;8.57;;;5.17;;
6203;SDS011;3135;42.602;23.468;2023-04-07T04:13:00;8.57;;;5.10;;
6203;SDS011;3135;42.602;23.468;2023-04-07T04:15:27;8.68;;;4.80;;
6203;SDS011;3135;42.602;23.468;2023-04-07T04:17:53;18.53;;;7.63;;
6203;SDS011;3135;42.602;23.468;2023-04-07T04:20:19;9.40;;;5.10;;
6203;SDS011;3135;42.602;23.468;2023-04-07T04:22:46;8.18;;;4.65;;
6203;SDS011;3135;42.602;23.468;2023-04-07T04:25:11;10.77;;;4.70;;
6203;SDS011;3135;42.602;23.468;2023-04-07T04:27:37;12.03;;;6.37;;
6203;SDS011;3135;42.602;23.468;2023-04-07T04:30:02;8.60;;;4.80;;
6203;SDS011;3135;42.602;23.468;2023-04-07T04:32:28;7.80;;;4.22;;
6203;SDS011;3135;42.602;23.468;2023-04-07T04:34:53;8.30;;;4.90;;
6203;SDS011;3135;42.602;23.468;2023-04-07T04:37:19;11.50;;;5.30;;
6203;SDS011;3135;42.602;23.468;2023-04-07T04:39:44;13.40;;;5.53;;
6203;SDS011;3135;42.602;23.468;2023-04-07T04:42:10;15.63;;;6.93;;
6203;SDS011;3135;42.602;23.468;2023-04-07T04:44:36;39.53;;;14.90;;
6203;SDS011;3135;42.602;23.468;2023-04-07T04:47:01;41.13;;;16.97;;
6203;SDS011;3135;42.602;23.468;2023-04-07T04:49:26;23.03;;;11.20;;
6203;SDS011;3135;42.602;23.468;2023-04-07T04:51:52;36.80;;;15.97;;
6203;SDS011;3135;42.602;23.468;2023-04-07T04:54:18;21.13;;;10.02;;
6203;SDS011;3135;42.602;23.468;2023-04-07T04:56:43;25.98;;;12.07;;
6203;SDS011;3135;42.602;23.468;2023-04-07T04:59:09;27.07;;;12.60;;
6203;SDS011;3135;42.602;23.468;2023-04-07T05:01:34;21.40;;;10.23;;
6203;SDS011;3135;42.602;23.468;2023-04-07T05:04:00;17.37;;;8.43;;
6203;SDS011;3135;42.602;23.468;2023-04-07T05:06:26;36.07;;;16.30;;
6203;SDS011;3135;42.602;23.468;2023-04-07T05:08:52;31.63;;;15.25;;
6203;SDS011;3135;42.602;23.468;2023-04-07T05:11:17;29.88;;;12.43;;
6203;SDS011;3135;42.602;23.468;2023-04-07T05:13:43;29.43;;;12.20;;
6203;SDS011;3135;42.602;23.468;2023-04-07T05:16:08;35.00;;;14.53;;
6203;SDS011;3135;42.602;23.468;2023-04-07T05:18:33;34.97;;;14.00;;
6203;SDS011;3135;42.602;23.468;2023-04-07T05:20:59;40.87;;;15.03;;
6203;SDS011;3135;42.602;23.468;2023-04-07T05:23:26;45.47;;;18.00;;
6203;SDS011;3135;42.602;23.468;2023-04-07T05:25:51;127.20;;;37.20;;
6203;SDS011;3135;42.602;23.468;2023-04-07T05:28:17;104.07;;;28.73;;
6203;SDS011;3135;42.602;23.468;2023-04-07T05:30:43;102.90;;;27.58;;
6203;SDS011;3135;42.602;23.468;2023-04-07T05:33:08;63.83;;;20.23;;
6203;SDS011;3135;42.602;23.468;2023-04-07T05:35:33;102.27;;;30.90;;
6203;SDS011;3135;42.602;23.468;2023-04-07T05:37:59;89.07;;;30.53;;
6203;SDS011;3135;42.602;23.468;2023-04-07T05:40:24;70.40;;;25.03;;
6203;SDS011;3135;42.602;23.468;2023-04-07T05:42:50;97.20;;;28.98;;
6203;SDS011;3135;42.602;23.468;2023-04-07T05:45:15;75.82;;;24.65;;
6203;SDS011;3135;42.602;23.468;2023-04-07T05:47:41;107.18;;;38.70;;
6203;SDS011;3135;42.602;23.468;2023-04-07T05:50:06;66.70;;;25.37;;
6203;SDS011;3135;42.602;23.468;2023-04-07T05:52:32;63.25;;;24.20;;
6203;SDS011;3135;42.602;23.468;2023-04-07T05:54:58;31.20;;;14.15;;
6203;SDS011;3135;42.602;23.468;2023-04-07T05:57:23;24.07;;;10.67;;
6203;SDS011;3135;42.602;23.468;2023-04-07T05:59:51;24.23;;;11.18;;
6203;SDS011;3135;42.602;23.468;2023-04-07T06:02:16;24.67;;;10.63;;
6203;SDS011;3135;42.602;23.468;2023-04-07T06:04:42;24.50;;;10.97;;
6203;SDS011;3135;42.602;23.468;2023-04-07T06:07:07;26.40;;;11.63;;
6203;SDS011;3135;42.602;23.468;2023-04-07T06:09:33;19.95;;;9.90;;
6203;SDS011;3135;42.602;23.468;2023-04-07T06:11:58;19.85;;;10.35;;
6203;SDS011;3135;42.602;23.468;2023-04-07T06:14:25;22.85;;;10.82;;
6203;SDS011;3135;42.602;23.468;2023-04-07T06:16:50;27.83;;;10.90;;
6203;SDS011;3135;42.602;23.468;2023-04-07T06:19:16;23.40;;;10.90;;
6203;SDS011;3135;42.602;23.468;2023-04-07T06:21:41;26.50;;;11.33;;
6203;SDS011;3135;42.602;23.468;2023-04-07T06:24:07;30.10;;;12.50;;
6203;SDS011;3135;42.602;23.468;2023-04-07T06:26:32;27.27;;;12.33;;
6203;SDS011;3135;42.602;23.468;2023-04-07T06:28:58;25.02;;;11.60;;
6203;SDS011;3135;42.602;23.468;2023-04-07T06:31:24;29.52;;;11.77;;
6203;SDS011;3135;42.602;23.468;2023-04-07T06:33:51;22.90;;;10.95;;
6203;SDS011;3135;42.602;23.468;2023-04-07T06:36:16;24.90;;;11.80;;
6203;SDS011;3135;42.602;23.468;2023-04-07T06:38:42;26.23;;;11.13;;
6203;SDS011;3135;42.602;23.468;2023-04-07T06:41:07;26.33;;;11.43;;
6203;SDS011;3135;42.602;23.468;2023-04-07T06:43:36;27.05;;;11.48;;
6203;SDS011;3135;42.602;23.468;2023-04-07T06:46:02;23.83;;;10.97;;
6203;SDS011;3135;42.602;23.468;2023-04-07T06:48:27;23.57;;;11.37;;
6203;SDS011;3135;42.602;23.468;2023-04-07T06:50:53;24.93;;;10.93;;
6203;SDS011;3135;42.602;23.468;2023-04-07T06:53:18;29.10;;;12.17;;
6203;SDS011;3135;42.602;23.468;2023-04-07T06:55:44;17.98;;;8.95;;
6203;SDS011;3135;42.602;23.468;2023-04-07T06:58:09;19.95;;;10.05;;
6203;SDS011;3135;42.602;23.468;2023-04-07T07:00:35;16.30;;;8.40;;
6203;SDS011;3135;42.602;23.468;2023-04-07T07:03:00;20.93;;;9.30;;
6203;SDS011;3135;42.602;23.468;2023-04-07T07:05:26;16.40;;;7.50;;
6203;SDS011;3135;42.602;23.468;2023-04-07T07:07:52;28.88;;;9.85;;
6203;SDS011;3135;42.602;23.468;2023-04-07T07:10:18;15.20;;;7.50;;
6203;SDS011;3135;42.602;23.468;2023-04-07T07:12:47;18.73;;;8.20;;
6203;SDS011;3135;42.602;23.468;2023-04-07T07:15:15;13.80;;;6.53;;
6203;SDS011;3135;42.602;23.468;2023-04-07T07:17:41;14.50;;;6.43;;
6203;SDS011;3135;42.602;23.468;2023-04-07T07:20:07;15.27;;;7.40;;
6203;SDS011;3135;42.602;23.468;2023-04-07T07:22:32;31.63;;;11.13;;
6203;SDS011;3135;42.602;23.468;2023-04-07T07:24:58;15.27;;;7.00;;
6203;SDS011;3135;42.602;23.468;2023-04-07T07:27:23;14.57;;;6.70;;
6203;SDS011;3135;42.602;23.468;2023-04-07T07:29:49;25.85;;;9.48;;
6203;SDS011;3135;42.602;23.468;2023-04-07T07:32:15;19.05;;;7.68;;
6203;SDS011;3135;42.602;23.468;2023-04-07T07:34:40;48.60;;;15.23;;
6203;SDS011;3135;42.602;23.468;2023-04-07T07:37:06;15.57;;;6.80;;
6203;SDS011;3135;42.602;23.468;2023-04-07T07:39:32;22.90;;;9.33;;
6203;SDS011;3135;42.602;23.468;2023-04-07T07:41:57;12.53;;;6.40;;
6203;SDS011;3135;42.602;23.468;2023-04-07T07:44:22;15.53;;;6.53;;
6203;SDS011;3135;42.602;23.468;2023-04-07T07:46:48;12.57;;;6.28;;
6203;SDS011;3135;42.602;23.468;2023-04-07T07:49:14;10.30;;;5.63;;
6203;SDS011;3135;42.602;23.468;2023-04-07T07:51:40;12.27;;;5.90;;
6203;SDS011;3135;42.602;23.468;2023-04-07T07:54:06;15.30;;;6.80;;
6203;SDS011;3135;42.602;23.468;2023-04-07T07:56:31;11.13;;;6.27;;
6203;SDS011;3135;42.602;23.468;2023-04-07T07:58:57;18.70;;;8.33;;
6203;SDS011;3135;42.602;23.468;2023-04-07T08:01:23;12.25;;;6.57;;
6203;SDS011;3135;42.602;23.468;2023-04-07T08:03:48;13.83;;;6.80;;
6203;SDS011;3135;42.602;23.468;2023-04-07T08:06:13;13.67;;;6.60;;
6203;SDS011;3135;42.602;23.468;2023-04-07T08:08:40;10.48;;;6.45;;
6203;SDS011;3135;42.602;23.468;2023-04-07T08:11:06;18.50;;;7.47;;
6203;SDS011;3135;42.602;23.468;2023-04-07T08:13:31;10.50;;;5.93;;
6203;SDS011;3135;42.602;23.468;2023-04-07T08:15:56;14.17;;;6.90;;
6203;SDS011;3135;42.602;23.468;2023-04-07T08:18:22;15.33;;;7.50;;
6203;SDS011;3135;42.602;23.468;2023-04-07T08:20:49;14.57;;;6.32;;
6203;SDS011;3135;42.602;23.468;2023-04-07T08:23:15;11.15;;;6.55;;
6203;SDS011;3135;42.602;23.468;2023-04-07T08:25:41;14.90;;;6.65;;
6203;SDS011;3135;42.602;23.468;2023-04-07T08:28:06;14.37;;;6.77;;
6203;SDS011;3135;42.602;23.468;2023-04-07T08:30:32;15.50;;;7.70;;
6203;SDS011;3135;42.602;23.468;2023-04-07T08:32:57;14.63;;;6.80;;
6203;SDS011;3135;42.602;23.468;2023-04-07T08:35:23;13.77;;;7.13;;
6203;SDS011;3135;42.602;23.468;2023-04-07T08:37:48;13.33;;;6.47;;
6203;SDS011;3135;42.602;23.468;2023-04-07T08:40:14;12.47;;;6.20;;
6203;SDS011;3135;42.602;23.468;2023-04-07T08:42:41;11.15;;;6.00;;
6203;SDS011;3135;42.602;23.468;2023-04-07T08:45:10;13.45;;;6.10;;
6203;SDS011;3135;42.602;23.468;2023-04-07T08:47:37;13.32;;;7.00;;
6203;SDS011;3135;42.602;23.468;2023-04-07T08:50:06;15.77;;;7.90;;
6203;SDS011;3135;42.602;23.468;2023-04-07T08:52:34;18.15;;;7.97;;
6203;SDS011;3135;42.602;23.468;2023-04-07T08:55:13;25.60;;;10.32;;
6203;SDS011;3135;42.602;23.468;2023-04-07T08:57:38;19.88;;;9.15;;
6203;SDS011;3135;42.602;23.468;2023-04-07T09:00:05;14.05;;;7.70;;
6203;SDS011;3135;42.602;23.468;2023-04-07T09:02:32;21.65;;;9.82;;
6203;SDS011;3135;42.602;23.468;2023-04-07T09:04:58;14.48;;;6.30;;
6203;SDS011;3135;42.602;23.468;2023-04-07T09:07:25;13.50;;;6.50;;
6203;SDS011;3135;42.602;23.468;2023-04-07T09:09:51;10.68;;;5.70;;
6203;SDS011;3135;42.602;23.468;2023-04-07T09:12:16;13.30;;;5.78;;
6203;SDS011;3135;42.602;23.468;2023-04-07T09:14:42;21.38;;;8.07;;
6203;SDS011;3135;42.602;23.468;2023-04-07T09:17:07;5.63;;;3.50;;
6203;SDS011;3135;42.602;23.468;2023-04-07T09:19:32;4.20;;;3.17;;
6203;SDS011;3135;42.602;23.468;2023-04-07T09:21:58;5.60;;;3.40;;
6203;SDS011;3135;42.602;23.468;2023-04-07T09:24:25;6.47;;;3.50;;
6203;SDS011;3135;42.602;23.468;2023-04-07T09:29:39;4.57;;;3.45;;
6203;SDS011;3135;42.602;23.468;2023-04-07T09:32:07;3.40;;;2.70;;
6203;SDS011;3135;42.602;23.468;2023-04-07T09:34:34;7.15;;;4.10;;
6203;SDS011;3135;42.602;23.468;2023-04-07T09:37:01;3.40;;;3.05;;
6203;SDS011;3135;42.602;23.468;2023-04-07T09:39:26;4.95;;;3.20;;
6203;SDS011;3135;42.602;23.468;2023-04-07T09:41:52;5.53;;;3.20;;
6203;SDS011;3135;42.602;23.468;2023-04-07T09:44:18;6.33;;;3.67;;
6203;SDS011;3135;42.602;23.468;2023-04-07T09:46:52;3.95;;;3.22;;
6203;SDS011;3135;42.602;23.468;2023-04-07T09:49:19;4.07;;;3.40;;
6203;SDS011;3135;42.602;23.468;2023-04-07T09:51:58;4.85;;;3.55;;
6203;SDS011;3135;42.602;23.468;2023-04-07T09:54:38;5.70;;;3.67;;
6203;SDS011;3135;42.602;23.468;2023-04-07T09:57:08;3.92;;;2.92;;
6203;SDS011;3135;42.602;23.468;2023-04-07T09:59:38;6.20;;;3.40;;
6203;SDS011;3135;42.602;23.468;2023-04-07T10:02:09;4.63;;;3.25;;
6203;SDS011;3135;42.602;23.468;2023-04-07T10:04:36;4.30;;;3.20;;
6203;SDS011;3135;42.602;23.468;2023-04-07T10:07:02;4.30;;;3.30;;
6203;SDS011;3135;42.602;23.468;2023-04-07T10:09:28;4.10;;;2.97;;
6203;SDS011;3135;42.602;23.468;2023-04-07T10:11:55;5.65;;;3.72;;
6203;SDS011;3135;42.602;23.468;2023-04-07T10:14:40;6.38;;;3.33;;
6203;SDS011;3135;42.602;23.468;2023-04-07T10:17:10;4.80;;;3.22;;
6203;SDS011;3135;42.602;23.468;2023-04-07T10:19:42;5.67;;;3.27;;
6203;SDS011;3135;42.602;23.468;2023-04-07T10:22:09;5.05;;;3.15;;
6203;SDS011;3135;42.602;23.468;2023-04-07T10:24:50;5.55;;;3.60;;
6203;SDS011;3135;42.602;23.468;2023-04-07T10:30:24;6.45;;;3.70;;
6203;SDS011;3135;42.602;23.468;2023-04-07T10:32:51;9.73;;;4.17;;
6203;SDS011;3135;42.602;23.468;2023-04-07T10:35:18;6.28;;;3.70;;
6203;SDS011;3135;42.602;23.468;2023-04-07T10:40:32;7.05;;;4.25;;
6203;SDS011;3135;42.602;23.468;2023-04-07T10:42:59;9.00;;;3.93;;
6203;SDS011;3135;42.602;23.468;2023-04-07T10:48:12;4.00;;;3.40;;
6203;SDS011;3135;42.602;23.468;2023-04-07T10:50:39;6.32;;;3.88;;
6203;SDS011;3135;42.602;23.468;2023-04-07T10:53:07;5.88;;;4.00;;
6203;SDS011;3135;42.602;23.468;2023-04-07T10:58:16;5.40;;;3.80;;
6203;SDS011;3135;42.602;23.468;2023-04-07T11:03:21;8.68;;;5.93;;
6203;SDS011;3135;42.602;23.468;2023-04-07T11:05:48;10.87;;;6.40;;
6203;SDS011;3135;42.602;23.468;2023-04-07T11:08:13;9.65;;;6.10;;
6203;SDS011;3135;42.602;23.468;2023-04-07T11:10:39;8.43;;;5.13;;
6203;SDS011;3135;42.602;23.468;2023-04-07T11:13:11;10.63;;;6.00;;
6203;SDS011;3135;42.602;23.468;2023-04-07T11:15:37;10.40;;;6.40;;
6203;SDS011;3135;42.602;23.468;2023-04-07T11:18:15;15.03;;;6.63;;
6203;SDS011;3135;42.602;23.468;2023-04-07T11:20:46;11.13;;;6.45;;
6203;SDS011;3135;42.602;23.468;2023-04-07T11:23:24;10.82;;;5.75;;
6203;SDS011;3135;42.602;23.468;2023-04-07T11:26:00;8.80;;;5.85;;
6203;SDS011;3135;42.602;23.468;2023-04-07T11:28:26;12.05;;;5.80;;
6203;SDS011;3135;42.602;23.468;2023-04-07T11:30:52;9.98;;;6.07;;
6203;SDS011;3135;42.602;23.468;2023-04-07T11:33:22;13.43;;;6.13;;
6203;SDS011;3135;42.602;23.468;2023-04-07T11:35:57;10.13;;;5.80;;
6203;SDS011;3135;42.602;23.468;2023-04-07T11:38:25;7.53;;;5.37;;
6203;SDS011;3135;42.602;23.468;2023-04-07T11:40:52;8.18;;;5.60;;
6203;SDS011;3135;42.602;23.468;2023-04-07T11:43:24;8.07;;;4.97;;
6203;SDS011;3135;42.602;23.468;2023-04-07T11:46:03;9.15;;;4.78;;
6203;SDS011;3135;42.602;23.468;2023-04-07T11:48:29;8.32;;;4.95;;
6203;SDS011;3135;42.602;23.468;2023-04-07T11:50:56;20.87;;;5.73;;
6203;SDS011;3135;42.602;23.468;2023-04-07T11:53:25;8.30;;;4.85;;
6203;SDS011;3135;42.602;23.468;2023-04-07T11:56:00;6.15;;;4.32;;
6203;SDS011;3135;42.602;23.468;2023-04-07T11:58:27;8.20;;;4.68;;
6203;SDS011;3135;42.602;23.468;2023-04-07T12:00:56;9.15;;;5.00;;
6203;SDS011;3135;42.602;23.468;2023-04-07T12:03:23;7.90;;;5.33;;
6203;SDS011;3135;42.602;23.468;2023-04-07T12:05:49;11.07;;;5.63;;
6203;SDS011;3135;42.602;23.468;2023-04-07T12:08:15;8.90;;;5.85;;
6203;SDS011;3135;42.602;23.468;2023-04-07T12:10:40;10.50;;;5.83;;
6203;SDS011;3135;42.602;23.468;2023-04-07T12:13:07;11.90;;;6.40;;
6203;SDS011;3135;42.602;23.468;2023-04-07T12:15:33;9.52;;;6.15;;
6203;SDS011;3135;42.602;23.468;2023-04-07T12:18:01;12.07;;;6.40;;
6203;SDS011;3135;42.602;23.468;2023-04-07T12:20:27;11.10;;;5.65;;
6203;SDS011;3135;42.602;23.468;2023-04-07T12:22:53;18.87;;;8.40;;
6203;SDS011;3135;42.602;23.468;2023-04-07T12:25:18;9.27;;;5.30;;
6203;SDS011;3135;42.602;23.468;2023-04-07T12:27:44;10.13;;;5.63;;
6203;SDS011;3135;42.602;23.468;2023-04-07T12:30:09;14.17;;;6.33;;
6203;SDS011;3135;42.602;23.468;2023-04-07T12:32:36;10.38;;;6.43;;
6203;SDS011;3135;42.602;23.468;2023-04-07T12:35:02;10.43;;;6.30;;
6203;SDS011;3135;42.602;23.468;2023-04-07T12:37:27;11.60;;;6.87;;
6203;SDS011;3135;42.602;23.468;2023-04-07T12:39:53;12.67;;;6.27;;
6203;SDS011;3135;42.602;23.468;2023-04-07T12:42:18;10.83;;;5.70;;
6203;SDS011;3135;42.602;23.468;2023-04-07T12:44:44;8.20;;;5.10;;
6203;SDS011;3135;42.602;23.468;2023-04-07T12:47:10;10.98;;;6.15;;
6203;SDS011;3135;42.602;23.468;2023-04-07T12:49:36;8.93;;;5.82;;
6203;SDS011;3135;42.602;23.468;2023-04-07T12:52:02;9.93;;;6.00;;
6203;SDS011;3135;42.602;23.468;2023-04-07T12:54:27;10.40;;;6.10;;
6203;SDS011;3135;42.602;23.468;2023-04-07T12:56:54;9.55;;;6.07;;
6203;SDS011;3135;42.602;23.468;2023-04-07T12:59:21;46.03;;;15.57;;
6203;SDS011;3135;42.602;23.468;2023-04-07T13:01:48;9.80;;;6.50;;
6203;SDS011;3135;42.602;23.468;2023-04-07T13:04:13;12.13;;;6.30;;
6203;SDS011;3135;42.602;23.468;2023-04-07T13:06:39;9.80;;;6.07;;
6203;SDS011;3135;42.602;23.468;2023-04-07T13:09:04;9.98;;;5.93;;
6203;SDS011;3135;42.602;23.468;2023-04-07T13:11:29;15.88;;;7.25;;
6203;SDS011;3135;42.602;23.468;2023-04-07T13:13:55;8.90;;;5.57;;
6203;SDS011;3135;42.602;23.468;2023-04-07T13:16:20;10.00;;;6.05;;
6203;SDS011;3135;42.602;23.468;2023-04-07T13:18:46;15.60;;;7.37;;
6203;SDS011;3135;42.602;23.468;2023-04-07T13:21:11;9.27;;;5.47;;
6203;SDS011;3135;42.602;23.468;2023-04-07T13:23:37;8.50;;;5.80;;
6203;SDS011;3135;42.602;23.468;2023-04-07T13:26:02;9.23;;;6.20;;
6203;SDS011;3135;42.602;23.468;2023-04-07T13:28:28;9.13;;;5.90;;
6203;SDS011;3135;42.602;23.468;2023-04-07T13:30:53;9.57;;;5.60;;
6203;SDS011;3135;42.602;23.468;2023-04-07T13:33:19;9.77;;;5.70;;
6203;SDS011;3135;42.602;23.468;2023-04-07T13:35:45;8.85;;;6.00;;
6203;SDS011;3135;42.602;23.468;2023-04-07T13:38:10;10.03;;;6.47;;
6203;SDS011;3135;42.602;23.468;2023-04-07T13:40:36;16.63;;;7.30;;
6203;SDS011;3135;42.602;23.468;2023-04-07T13:43:02;17.17;;;7.07;;
6203;SDS011;3135;42.602;23.468;2023-04-07T13:45:28;12.18;;;6.40;;
6203;SDS011;3135;42.602;23.468;2023-04-07T13:47:53;9.83;;;5.97;;
6203;SDS011;3135;42.602;23.468;2023-04-07T13:50:19;11.97;;;6.40;;
6203;SDS011;3135;42.602;23.468;2023-04-07T13:52:44;10.57;;;6.30;;
6203;SDS011;3135;42.602;23.468;2023-04-07T13:55:10;11.00;;;6.33;;
6203;SDS011;3135;42.602;23.468;2023-04-07T13:57:35;13.93;;;6.20;;
6203;SDS011;3135;42.602;23.468;2023-04-07T14:00:01;12.93;;;6.97;;
6203;SDS011;3135;42.602;23.468;2023-04-07T14:02:26;40.77;;;21.50;;
6203;SDS011;3135;42.602;23.468;2023-04-07T14:04:53;12.70;;;7.18;;
6203;SDS011;3135;42.602;23.468;2023-04-07T14:07:19;12.10;;;6.95;;
6203;SDS011;3135;42.602;23.468;2023-04-07T14:09:44;13.75;;;7.68;;
6203;SDS011;3135;42.602;23.468;2023-04-07T14:12:10;26.07;;;17.00;;
6203;SDS011;3135;42.602;23.468;2023-04-07T14:14:36;18.60;;;11.80;;
6203;SDS011;3135;42.602;23.468;2023-04-07T14:17:02;11.55;;;6.75;;
6203;SDS011;3135;42.602;23.468;2023-04-07T14:19:27;16.52;;;9.32;;
6203;SDS011;3135;42.602;23.468;2023-04-07T14:21:53;65.80;;;35.30;;
6203;SDS011;3135;42.602;23.468;2023-04-07T14:24:19;144.60;;;67.88;;
6203;SDS011;3135;42.602;23.468;2023-04-07T14:26:45;160.77;;;66.97;;
6203;SDS011;3135;42.602;23.468;2023-04-07T14:29:11;173.27;;;70.32;;
6203;SDS011;3135;42.602;23.468;2023-04-07T14:31:37;122.60;;;29.40;;
6203;SDS011;3135;42.602;23.468;2023-04-07T14:34:03;81.78;;;20.55;;
6203;SDS011;3135;42.602;23.468;2023-04-07T14:36:29;58.85;;;17.85;;
6203;SDS011;3135;42.602;23.468;2023-04-07T14:38:55;31.67;;;11.55;;
6203;SDS011;3135;42.602;23.468;2023-04-07T14:41:21;145.60;;;35.30;;
6203;SDS011;3135;42.602;23.468;2023-04-07T14:43:47;242.52;;;50.53;;
6203;SDS011;3135;42.602;23.468;2023-04-07T14:46:19;492.48;;;114.25;;
6203;SDS011;3135;42.602;23.468;2023-04-07T14:48:45;215.60;;;43.03;;
6203;SDS011;3135;42.602;23.468;2023-04-07T14:51:11;238.57;;;48.88;;
6203;SDS011;3135;42.602;23.468;2023-04-07T14:53:37;236.30;;;53.17;;
6203;SDS011;3135;42.602;23.468;2023-04-07T14:56:06;28.23;;;10.52;;
6203;SDS011;3135;42.602;23.468;2023-04-07T14:58:31;212.68;;;42.88;;
6203;SDS011;3135;42.602;23.468;2023-04-07T15:00:57;88.00;;;20.83;;
6203;SDS011;3135;42.602;23.468;2023-04-07T15:03:22;117.10;;;29.17;;
6203;SDS011;3135;42.602;23.468;2023-04-07T15:05:48;203.87;;;47.97;;
6203;SDS011;3135;42.602;23.468;2023-04-07T15:08:13;24.27;;;9.37;;
6203;SDS011;3135;42.602;23.468;2023-04-07T15:10:38;27.17;;;9.93;;